sensor_id;sensor_type;location;lat;lon;timestamp;P1;durP1;ratioP1;P2;durP2;ratioP2
50092;SDS011;35974;47.752;10.290;2022-10-16T00:01:06;4.80;;;2.80;;
50092;SDS011;35974;47.752;10.290;2022-10-16T00:03:38;6.82;;;2.65;;
50092;SDS011;35974;47.752;10.290;2022-10-16T00:06:05;10.30;;;3.08;;
50092;SDS011;35974;47.752;10.290;2022-10-16T00:08:32;9.40;;;3.28;;
50092;SDS011;35974;47.752;10.290;2022-10-16T00:11:00;9.07;;;3.33;;
50092;SDS011;35974;47.752;10.290;2022-10-16T00:13:32;6.38;;;2.88;;
50092;SDS011;35974;47.752;10.290;2022-10-16T00:16:00;6.40;;;2.50;;
50092;SDS011;35974;47.752;10.290;2022-10-16T00:18:27;8.32;;;2.75;;
50092;SDS011;35974;47.752;10.290;2022-10-16T00:20:55;7.40;;;2.40;;
50092;SDS011;35974;47.752;10.290;2022-10-16T00:23:22;4.15;;;2.30;;
50092;SDS011;35974;47.752;10.290;2022-10-16T00:25:58;3.10;;;1.98;;
50092;SDS011;35974;47.752;10.290;2022-10-16T00:28:27;5.88;;;1.95;;
50092;SDS011;35974;47.752;10.290;2022-10-16T00:30:54;2.97;;;1.88;;
50092;SDS011;35974;47.752;10.290;2022-10-16T00:33:21;7.93;;;1.98;;
50092;SDS011;35974;47.752;10.290;2022-10-16T00:35:48;5.82;;;1.80;;
50092;SDS011;35974;47.752;10.290;2022-10-16T00:38:15;7.68;;;1.90;;
50092;SDS011;35974;47.752;10.290;2022-10-16T00:40:42;6.18;;;1.80;;
50092;SDS011;35974;47.752;10.290;2022-10-16T00:43:12;11.65;;;2.25;;
50092;SDS011;35974;47.752;10.290;2022-10-16T00:45:40;8.70;;;1.63;;
50092;SDS011;35974;47.752;10.290;2022-10-16T00:48:09;6.80;;;1.70;;
50092;SDS011;35974;47.752;10.290;2022-10-16T00:50:39;3.88;;;1.80;;
50092;SDS011;35974;47.752;10.290;2022-10-16T00:53:09;4.35;;;1.83;;
50092;SDS011;35974;47.752;10.290;2022-10-16T00:55:37;4.90;;;1.70;;
50092;SDS011;35974;47.752;10.290;2022-10-16T00:58:09;7.18;;;1.50;;
50092;SDS011;35974;47.752;10.290;2022-10-16T01:00:36;3.88;;;1.55;;
50092;SDS011;35974;47.752;10.290;2022-10-16T01:03:03;1.88;;;1.30;;
50092;SDS011;35974;47.752;10.290;2022-10-16T01:05:54;3.10;;;1.50;;
50092;SDS011;35974;47.752;10.290;2022-10-16T01:08:54;2.70;;;1.40;;
50092;SDS011;35974;47.752;10.290;2022-10-16T01:11:20;6.45;;;1.40;;
50092;SDS011;35974;47.752;10.290;2022-10-16T01:13:55;3.40;;;1.30;;
50092;SDS011;35974;47.752;10.290;2022-10-16T01:17:00;5.70;;;1.35;;
50092;SDS011;35974;47.752;10.290;2022-10-16T01:22:21;3.38;;;1.25;;
50092;SDS011;35974;47.752;10.290;2022-10-16T01:24:54;5.18;;;1.48;;
50092;SDS011;35974;47.752;10.290;2022-10-16T01:27:26;6.60;;;1.20;;
50092;SDS011;35974;47.752;10.290;2022-10-16T01:30:13;3.53;;;1.08;;
50092;SDS011;35974;47.752;10.290;2022-10-16T01:35:22;5.72;;;1.30;;
50092;SDS011;35974;47.752;10.290;2022-10-16T01:38:00;3.45;;;1.20;;
50092;SDS011;35974;47.752;10.290;2022-10-16T01:40:31;2.13;;;1.25;;
50092;SDS011;35974;47.752;10.290;2022-10-16T01:43:01;2.75;;;1.20;;
50092;SDS011;35974;47.752;10.290;2022-10-16T01:45:31;6.53;;;1.15;;
50092;SDS011;35974;47.752;10.290;2022-10-16T01:48:00;1.10;;;0.95;;
50092;SDS011;35974;47.752;10.290;2022-10-16T01:50:31;2.55;;;0.93;;
50092;SDS011;35974;47.752;10.290;2022-10-16T01:53:02;6.20;;;1.13;;
50092;SDS011;35974;47.752;10.290;2022-10-16T01:55:32;2.53;;;1.10;;
50092;SDS011;35974;47.752;10.290;2022-10-16T01:58:04;2.28;;;0.80;;
50092;SDS011;35974;47.752;10.290;2022-10-16T02:00:34;3.28;;;1.10;;
50092;SDS011;35974;47.752;10.290;2022-10-16T02:03:04;2.22;;;1.00;;
50092;SDS011;35974;47.752;10.290;2022-10-16T02:05:42;4.15;;;1.10;;
50092;SDS011;35974;47.752;10.290;2022-10-16T02:08:12;1.05;;;0.80;;
50092;SDS011;35974;47.752;10.290;2022-10-16T02:10:39;2.30;;;0.80;;
50092;SDS011;35974;47.752;10.290;2022-10-16T02:15:42;1.73;;;0.80;;
50092;SDS011;35974;47.752;10.290;2022-10-16T02:18:08;1.95;;;0.95;;
50092;SDS011;35974;47.752;10.290;2022-10-16T02:20:38;2.00;;;0.75;;
50092;SDS011;35974;47.752;10.290;2022-10-16T02:23:16;1.55;;;0.80;;
50092;SDS011;35974;47.752;10.290;2022-10-16T02:25:49;9.60;;;0.80;;
50092;SDS011;35974;47.752;10.290;2022-10-16T02:28:17;7.85;;;1.00;;
50092;SDS011;35974;47.752;10.290;2022-10-16T02:30:50;8.23;;;1.23;;
50092;SDS011;35974;47.752;10.290;2022-10-16T02:33:22;4.38;;;1.00;;
50092;SDS011;35974;47.752;10.290;2022-10-16T02:35:51;10.65;;;1.00;;
50092;SDS011;35974;47.752;10.290;2022-10-16T02:38:18;4.60;;;1.02;;
50092;SDS011;35974;47.752;10.290;2022-10-16T02:40:46;3.85;;;1.00;;
50092;SDS011;35974;47.752;10.290;2022-10-16T02:43:13;5.50;;;0.85;;
50092;SDS011;35974;47.752;10.290;2022-10-16T02:45:39;2.83;;;0.90;;
50092;SDS011;35974;47.752;10.290;2022-10-16T02:48:06;2.50;;;0.77;;
50092;SDS011;35974;47.752;10.290;2022-10-16T02:50:32;4.03;;;0.82;;
50092;SDS011;35974;47.752;10.290;2022-10-16T02:53:00;3.97;;;1.10;;
50092;SDS011;35974;47.752;10.290;2022-10-16T02:55:26;1.75;;;1.00;;
50092;SDS011;35974;47.752;10.290;2022-10-16T02:57:54;1.30;;;0.80;;
50092;SDS011;35974;47.752;10.290;2022-10-16T03:00:20;3.60;;;1.30;;
50092;SDS011;35974;47.752;10.290;2022-10-16T03:02:47;7.47;;;1.30;;
50092;SDS011;35974;47.752;10.290;2022-10-16T03:05:14;1.38;;;0.73;;
50092;SDS011;35974;47.752;10.290;2022-10-16T03:07:41;3.90;;;0.77;;
50092;SDS011;35974;47.752;10.290;2022-10-16T03:10:07;2.40;;;1.05;;
50092;SDS011;35974;47.752;10.290;2022-10-16T03:12:34;3.70;;;1.00;;
50092;SDS011;35974;47.752;10.290;2022-10-16T03:15:00;2.08;;;0.73;;
50092;SDS011;35974;47.752;10.290;2022-10-16T03:17:27;2.05;;;1.05;;
50092;SDS011;35974;47.752;10.290;2022-10-16T03:19:54;6.03;;;0.75;;
50092;SDS011;35974;47.752;10.290;2022-10-16T03:22:20;2.95;;;1.10;;
50092;SDS011;35974;47.752;10.290;2022-10-16T03:24:47;2.75;;;1.13;;
50092;SDS011;35974;47.752;10.290;2022-10-16T03:27:13;1.60;;;0.70;;
50092;SDS011;35974;47.752;10.290;2022-10-16T03:29:40;2.80;;;0.77;;
50092;SDS011;35974;47.752;10.290;2022-10-16T03:32:06;7.80;;;0.93;;
50092;SDS011;35974;47.752;10.290;2022-10-16T03:34:32;3.60;;;0.88;;
50092;SDS011;35974;47.752;10.290;2022-10-16T03:36:59;3.20;;;1.00;;
50092;SDS011;35974;47.752;10.290;2022-10-16T03:39:25;3.03;;;0.70;;
50092;SDS011;35974;47.752;10.290;2022-10-16T03:41:52;1.90;;;0.90;;
50092;SDS011;35974;47.752;10.290;2022-10-16T03:44:18;4.07;;;1.13;;
50092;SDS011;35974;47.752;10.290;2022-10-16T03:46:44;2.55;;;0.80;;
50092;SDS011;35974;47.752;10.290;2022-10-16T03:49:11;0.93;;;0.80;;
50092;SDS011;35974;47.752;10.290;2022-10-16T03:51:37;3.15;;;1.40;;
50092;SDS011;35974;47.752;10.290;2022-10-16T03:54:04;2.85;;;1.30;;
50092;SDS011;35974;47.752;10.290;2022-10-16T03:56:30;1.98;;;1.30;;
50092;SDS011;35974;47.752;10.290;2022-10-16T03:58:57;3.03;;;1.63;;
50092;SDS011;35974;47.752;10.290;2022-10-16T04:01:23;2.75;;;1.33;;
50092;SDS011;35974;47.752;10.290;2022-10-16T04:03:50;1.73;;;1.10;;
50092;SDS011;35974;47.752;10.290;2022-10-16T04:06:16;2.67;;;1.02;;
50092;SDS011;35974;47.752;10.290;2022-10-16T04:08:43;1.58;;;0.77;;
50092;SDS011;35974;47.752;10.290;2022-10-16T04:11:10;2.10;;;0.80;;
50092;SDS011;35974;47.752;10.290;2022-10-16T04:13:37;2.47;;;0.80;;
50092;SDS011;35974;47.752;10.290;2022-10-16T04:16:03;1.05;;;0.80;;
50092;SDS011;35974;47.752;10.290;2022-10-16T04:18:30;2.50;;;0.82;;
50092;SDS011;35974;47.752;10.290;2022-10-16T04:20:56;4.65;;;0.93;;
50092;SDS011;35974;47.752;10.290;2022-10-16T04:23:23;2.15;;;0.90;;
50092;SDS011;35974;47.752;10.290;2022-10-16T04:25:50;1.63;;;0.70;;
50092;SDS011;35974;47.752;10.290;2022-10-16T04:28:17;0.75;;;0.60;;
50092;SDS011;35974;47.752;10.290;2022-10-16T04:30:44;1.08;;;0.65;;
50092;SDS011;35974;47.752;10.290;2022-10-16T04:33:10;1.63;;;0.65;;
50092;SDS011;35974;47.752;10.290;2022-10-16T04:35:36;1.50;;;0.60;;
50092;SDS011;35974;47.752;10.290;2022-10-16T04:38:03;4.40;;;0.70;;
50092;SDS011;35974;47.752;10.290;2022-10-16T04:40:29;2.50;;;0.65;;
50092;SDS011;35974;47.752;10.290;2022-10-16T04:42:59;2.67;;;0.85;;
50092;SDS011;35974;47.752;10.290;2022-10-16T04:45:25;1.05;;;0.68;;
50092;SDS011;35974;47.752;10.290;2022-10-16T04:47:52;1.80;;;1.08;;
50092;SDS011;35974;47.752;10.290;2022-10-16T04:50:18;5.30;;;1.85;;
50092;SDS011;35974;47.752;10.290;2022-10-16T04:52:44;2.25;;;1.20;;
50092;SDS011;35974;47.752;10.290;2022-10-16T04:55:11;2.35;;;1.02;;
50092;SDS011;35974;47.752;10.290;2022-10-16T04:57:38;6.38;;;0.90;;
50092;SDS011;35974;47.752;10.290;2022-10-16T05:00:04;1.13;;;1.00;;
50092;SDS011;35974;47.752;10.290;2022-10-16T05:02:31;3.60;;;0.55;;
50092;SDS011;35974;47.752;10.290;2022-10-16T05:04:58;3.88;;;0.90;;
50092;SDS011;35974;47.752;10.290;2022-10-16T05:07:24;1.27;;;0.88;;
50092;SDS011;35974;47.752;10.290;2022-10-16T05:09:51;2.55;;;0.75;;
50092;SDS011;35974;47.752;10.290;2022-10-16T05:12:17;1.98;;;0.80;;
50092;SDS011;35974;47.752;10.290;2022-10-16T05:14:43;4.82;;;1.20;;
50092;SDS011;35974;47.752;10.290;2022-10-16T05:17:10;4.03;;;1.10;;
50092;SDS011;35974;47.752;10.290;2022-10-16T05:19:36;8.90;;;1.05;;
50092;SDS011;35974;47.752;10.290;2022-10-16T05:22:03;1.63;;;0.88;;
50092;SDS011;35974;47.752;10.290;2022-10-16T05:24:29;2.38;;;0.80;;
50092;SDS011;35974;47.752;10.290;2022-10-16T05:26:56;8.35;;;0.60;;
50092;SDS011;35974;47.752;10.290;2022-10-16T05:29:22;8.80;;;0.90;;
50092;SDS011;35974;47.752;10.290;2022-10-16T05:31:52;2.67;;;0.70;;
50092;SDS011;35974;47.752;10.290;2022-10-16T05:34:19;4.32;;;0.75;;
50092;SDS011;35974;47.752;10.290;2022-10-16T05:36:46;8.27;;;1.00;;
50092;SDS011;35974;47.752;10.290;2022-10-16T05:39:13;6.43;;;1.20;;
50092;SDS011;35974;47.752;10.290;2022-10-16T05:41:41;5.65;;;1.10;;
50092;SDS011;35974;47.752;10.290;2022-10-16T05:44:07;2.35;;;1.02;;
50092;SDS011;35974;47.752;10.290;2022-10-16T05:46:33;2.58;;;1.00;;
50092;SDS011;35974;47.752;10.290;2022-10-16T05:49:00;1.50;;;1.00;;
50092;SDS011;35974;47.752;10.290;2022-10-16T05:51:27;8.50;;;1.30;;
50092;SDS011;35974;47.752;10.290;2022-10-16T05:53:53;3.65;;;1.20;;
50092;SDS011;35974;47.752;10.290;2022-10-16T05:56:20;2.05;;;1.20;;
50092;SDS011;35974;47.752;10.290;2022-10-16T05:58:46;6.05;;;1.50;;
50092;SDS011;35974;47.752;10.290;2022-10-16T06:01:14;1.77;;;0.85;;
50092;SDS011;35974;47.752;10.290;2022-10-16T06:03:42;3.50;;;1.00;;
50092;SDS011;35974;47.752;10.290;2022-10-16T06:06:15;3.15;;;1.02;;
50092;SDS011;35974;47.752;10.290;2022-10-16T06:08:47;3.50;;;1.30;;
50092;SDS011;35974;47.752;10.290;2022-10-16T06:11:19;11.40;;;1.58;;
50092;SDS011;35974;47.752;10.290;2022-10-16T06:13:52;3.65;;;1.20;;
50092;SDS011;35974;47.752;10.290;2022-10-16T06:16:20;6.05;;;1.30;;
50092;SDS011;35974;47.752;10.290;2022-10-16T06:18:47;2.45;;;0.90;;
50092;SDS011;35974;47.752;10.290;2022-10-16T06:21:14;1.70;;;0.90;;
50092;SDS011;35974;47.752;10.290;2022-10-16T06:23:44;2.63;;;0.98;;
50092;SDS011;35974;47.752;10.290;2022-10-16T06:26:16;2.33;;;1.10;;
50092;SDS011;35974;47.752;10.290;2022-10-16T06:28:44;3.67;;;1.27;;
50092;SDS011;35974;47.752;10.290;2022-10-16T06:31:11;6.68;;;2.22;;
50092;SDS011;35974;47.752;10.290;2022-10-16T06:33:39;4.18;;;2.10;;
50092;SDS011;35974;47.752;10.290;2022-10-16T06:36:07;3.78;;;1.40;;
50092;SDS011;35974;47.752;10.290;2022-10-16T06:38:36;4.15;;;1.00;;
50092;SDS011;35974;47.752;10.290;2022-10-16T06:41:03;1.65;;;1.10;;
50092;SDS011;35974;47.752;10.290;2022-10-16T06:43:31;2.10;;;1.45;;
50092;SDS011;35974;47.752;10.290;2022-10-16T06:45:58;4.25;;;2.33;;
50092;SDS011;35974;47.752;10.290;2022-10-16T06:48:27;3.67;;;2.08;;
50092;SDS011;35974;47.752;10.290;2022-10-16T06:51:02;3.85;;;1.73;;
50092;SDS011;35974;47.752;10.290;2022-10-16T06:53:34;3.80;;;1.25;;
50092;SDS011;35974;47.752;10.290;2022-10-16T06:56:15;3.55;;;1.15;;
50092;SDS011;35974;47.752;10.290;2022-10-16T06:58:43;2.35;;;1.00;;
50092;SDS011;35974;47.752;10.290;2022-10-16T07:01:10;2.58;;;1.10;;
50092;SDS011;35974;47.752;10.290;2022-10-16T07:03:38;3.83;;;1.60;;
50092;SDS011;35974;47.752;10.290;2022-10-16T07:06:07;2.90;;;1.45;;
50092;SDS011;35974;47.752;10.290;2022-10-16T07:08:35;1.67;;;1.20;;
50092;SDS011;35974;47.752;10.290;2022-10-16T07:11:05;2.67;;;0.93;;
50092;SDS011;35974;47.752;10.290;2022-10-16T07:13:34;2.17;;;1.02;;
50092;SDS011;35974;47.752;10.290;2022-10-16T07:16:12;2.25;;;0.60;;
50092;SDS011;35974;47.752;10.290;2022-10-16T07:18:41;1.80;;;0.80;;
50092;SDS011;35974;47.752;10.290;2022-10-16T07:21:10;0.98;;;0.75;;
50092;SDS011;35974;47.752;10.290;2022-10-16T07:23:42;2.88;;;0.80;;
50092;SDS011;35974;47.752;10.290;2022-10-16T07:28:43;1.55;;;0.98;;
50092;SDS011;35974;47.752;10.290;2022-10-16T07:31:11;1.98;;;1.33;;
50092;SDS011;35974;47.752;10.290;2022-10-16T07:33:42;4.53;;;1.55;;
50092;SDS011;35974;47.752;10.290;2022-10-16T07:36:15;4.90;;;1.40;;
50092;SDS011;35974;47.752;10.290;2022-10-16T07:38:45;2.17;;;1.30;;
50092;SDS011;35974;47.752;10.290;2022-10-16T07:41:13;1.83;;;0.90;;
50092;SDS011;35974;47.752;10.290;2022-10-16T07:43:45;2.35;;;1.15;;
50092;SDS011;35974;47.752;10.290;2022-10-16T07:46:13;1.85;;;1.02;;
50092;SDS011;35974;47.752;10.290;2022-10-16T07:48:40;2.85;;;0.90;;
50092;SDS011;35974;47.752;10.290;2022-10-16T07:51:07;4.75;;;1.00;;
50092;SDS011;35974;47.752;10.290;2022-10-16T07:53:34;1.38;;;0.82;;
50092;SDS011;35974;47.752;10.290;2022-10-16T07:56:02;1.67;;;0.90;;
50092;SDS011;35974;47.752;10.290;2022-10-16T07:58:35;2.30;;;0.95;;
50092;SDS011;35974;47.752;10.290;2022-10-16T08:01:09;1.45;;;0.95;;
50092;SDS011;35974;47.752;10.290;2022-10-16T08:03:37;2.03;;;0.90;;
50092;SDS011;35974;47.752;10.290;2022-10-16T08:06:22;3.95;;;0.80;;
50092;SDS011;35974;47.752;10.290;2022-10-16T08:08:56;2.72;;;0.73;;
50092;SDS011;35974;47.752;10.290;2022-10-16T08:11:37;2.55;;;0.85;;
50092;SDS011;35974;47.752;10.290;2022-10-16T08:14:03;3.33;;;0.68;;
50092;SDS011;35974;47.752;10.290;2022-10-16T08:16:29;1.83;;;0.65;;
50092;SDS011;35974;47.752;10.290;2022-10-16T08:18:56;1.25;;;0.65;;
50092;SDS011;35974;47.752;10.290;2022-10-16T08:21:22;1.15;;;0.70;;
50092;SDS011;35974;47.752;10.290;2022-10-16T08:23:57;2.40;;;0.60;;
50092;SDS011;35974;47.752;10.290;2022-10-16T08:26:36;5.60;;;0.65;;
50092;SDS011;35974;47.752;10.290;2022-10-16T08:29:08;2.28;;;0.60;;
50092;SDS011;35974;47.752;10.290;2022-10-16T08:31:39;0.85;;;0.50;;
50092;SDS011;35974;47.752;10.290;2022-10-16T08:36:37;3.53;;;0.55;;
50092;SDS011;35974;47.752;10.290;2022-10-16T08:39:07;0.93;;;0.60;;
50092;SDS011;35974;47.752;10.290;2022-10-16T08:47:22;2.95;;;0.55;;
50092;SDS011;35974;47.752;10.290;2022-10-16T08:52:29;1.27;;;0.60;;
50092;SDS011;35974;47.752;10.290;2022-10-16T08:54:58;1.23;;;0.30;;
50092;SDS011;35974;47.752;10.290;2022-10-16T08:57:25;3.38;;;0.50;;
50092;SDS011;35974;47.752;10.290;2022-10-16T09:05:01;1.98;;;1.50;;
50092;SDS011;35974;47.752;10.290;2022-10-16T09:08:48;0.98;;;0.70;;
50092;SDS011;35974;47.752;10.290;2022-10-16T09:13:30;0.90;;;0.40;;
50092;SDS011;35974;47.752;10.290;2022-10-16T09:18:59;4.32;;;0.60;;
50092;SDS011;35974;47.752;10.290;2022-10-16T09:21:41;0.77;;;0.50;;
50092;SDS011;35974;47.752;10.290;2022-10-16T09:24:15;1.08;;;0.40;;
50092;SDS011;35974;47.752;10.290;2022-10-16T09:26:43;0.88;;;0.50;;
50092;SDS011;35974;47.752;10.290;2022-10-16T09:29:14;3.25;;;0.60;;
50092;SDS011;35974;47.752;10.290;2022-10-16T09:31:42;1.02;;;0.60;;
50092;SDS011;35974;47.752;10.290;2022-10-16T09:34:27;0.60;;;0.50;;
50092;SDS011;35974;47.752;10.290;2022-10-16T09:36:58;0.68;;;0.57;;
50092;SDS011;35974;47.752;10.290;2022-10-16T09:39:27;0.80;;;0.50;;
50092;SDS011;35974;47.752;10.290;2022-10-16T09:41:53;2.10;;;0.98;;
50092;SDS011;35974;47.752;10.290;2022-10-16T09:46:48;4.13;;;3.20;;
50092;SDS011;35974;47.752;10.290;2022-10-16T09:52:02;0.70;;;0.60;;
50092;SDS011;35974;47.752;10.290;2022-10-16T09:54:37;0.82;;;0.50;;
50092;SDS011;35974;47.752;10.290;2022-10-16T09:57:04;2.05;;;0.52;;
50092;SDS011;35974;47.752;10.290;2022-10-16T09:59:54;3.42;;;0.75;;
50092;SDS011;35974;47.752;10.290;2022-10-16T10:05:02;1.00;;;0.50;;
50092;SDS011;35974;47.752;10.290;2022-10-16T10:07:32;1.63;;;0.80;;
50092;SDS011;35974;47.752;10.290;2022-10-16T10:13:03;1.13;;;0.60;;
50092;SDS011;35974;47.752;10.290;2022-10-16T10:15:34;1.67;;;0.60;;
50092;SDS011;35974;47.752;10.290;2022-10-16T10:18:20;2.22;;;0.60;;
50092;SDS011;35974;47.752;10.290;2022-10-16T10:20:58;1.77;;;0.50;;
50092;SDS011;35974;47.752;10.290;2022-10-16T10:23:28;2.05;;;0.60;;
50092;SDS011;35974;47.752;10.290;2022-10-16T10:26:05;0.47;;;0.40;;
50092;SDS011;35974;47.752;10.290;2022-10-16T10:34:42;0.75;;;0.50;;
50092;SDS011;35974;47.752;10.290;2022-10-16T10:40:28;0.45;;;0.30;;
50092;SDS011;35974;47.752;10.290;2022-10-16T10:43:15;1.60;;;0.40;;
50092;SDS011;35974;47.752;10.290;2022-10-16T10:45:58;0.75;;;0.40;;
50092;SDS011;35974;47.752;10.290;2022-10-16T10:48:38;2.88;;;0.30;;
50092;SDS011;35974;47.752;10.290;2022-10-16T10:54:38;0.32;;;0.30;;
50092;SDS011;35974;47.752;10.290;2022-10-16T10:57:15;1.30;;;0.30;;
50092;SDS011;35974;47.752;10.290;2022-10-16T11:05:49;0.20;;;0.20;;
50092;SDS011;35974;47.752;10.290;2022-10-16T11:08:38;0.40;;;0.38;;
50092;SDS011;35974;47.752;10.290;2022-10-16T11:11:20;1.30;;;0.50;;
50092;SDS011;35974;47.752;10.290;2022-10-16T11:14:05;1.75;;;0.35;;
50092;SDS011;35974;47.752;10.290;2022-10-16T11:16:54;1.65;;;0.47;;
50092;SDS011;35974;47.752;10.290;2022-10-16T11:30:27;1.48;;;0.40;;
50092;SDS011;35974;47.752;10.290;2022-10-16T11:35:43;0.90;;;0.40;;
50092;SDS011;35974;47.752;10.290;2022-10-16T11:44:19;0.68;;;0.43;;
50092;SDS011;35974;47.752;10.290;2022-10-16T11:55:29;1.40;;;0.47;;
50092;SDS011;35974;47.752;10.290;2022-10-16T11:58:05;1.08;;;0.40;;
50092;SDS011;35974;47.752;10.290;2022-10-16T12:00:59;1.23;;;0.30;;
50092;SDS011;35974;47.752;10.290;2022-10-16T12:08:51;0.60;;;0.43;;
50092;SDS011;35974;47.752;10.290;2022-10-16T12:13:45;1.10;;;0.50;;
50092;SDS011;35974;47.752;10.290;2022-10-16T12:18:41;0.75;;;0.43;;
50092;SDS011;35974;47.752;10.290;2022-10-16T12:21:12;0.57;;;0.40;;
50092;SDS011;35974;47.752;10.290;2022-10-16T12:28:53;1.48;;;0.40;;
50092;SDS011;35974;47.752;10.290;2022-10-16T12:31:20;0.60;;;0.40;;
50092;SDS011;35974;47.752;10.290;2022-10-16T12:34:14;0.82;;;0.43;;
50092;SDS011;35974;47.752;10.290;2022-10-16T12:36:55;1.55;;;0.40;;
50092;SDS011;35974;47.752;10.290;2022-10-16T12:39:35;0.93;;;0.40;;
50092;SDS011;35974;47.752;10.290;2022-10-16T12:42:03;0.40;;;0.40;;
50092;SDS011;35974;47.752;10.290;2022-10-16T12:44:33;0.98;;;0.50;;
50092;SDS011;35974;47.752;10.290;2022-10-16T12:47:01;2.15;;;0.90;;
50092;SDS011;35974;47.752;10.290;2022-10-16T12:49:30;0.43;;;0.38;;
50092;SDS011;35974;47.752;10.290;2022-10-16T12:52:04;1.58;;;0.60;;
50092;SDS011;35974;47.752;10.290;2022-10-16T12:54:50;1.45;;;0.47;;
50092;SDS011;35974;47.752;10.290;2022-10-16T13:08:58;0.30;;;0.25;;
50092;SDS011;35974;47.752;10.290;2022-10-16T13:11:45;0.98;;;0.50;;
50092;SDS011;35974;47.752;10.290;2022-10-16T13:14:24;0.75;;;0.32;;
50092;SDS011;35974;47.752;10.290;2022-10-16T13:28:13;0.75;;;0.45;;
50092;SDS011;35974;47.752;10.290;2022-10-16T13:30:52;0.68;;;0.55;;
50092;SDS011;35974;47.752;10.290;2022-10-16T13:33:30;2.40;;;0.52;;
50092;SDS011;35974;47.752;10.290;2022-10-16T13:36:05;1.13;;;0.50;;
50092;SDS011;35974;47.752;10.290;2022-10-16T13:38:34;1.08;;;0.50;;
50092;SDS011;35974;47.752;10.290;2022-10-16T13:41:05;0.63;;;0.43;;
50092;SDS011;35974;47.752;10.290;2022-10-16T13:43:47;1.00;;;0.40;;
50092;SDS011;35974;47.752;10.290;2022-10-16T13:46:20;1.15;;;0.40;;
50092;SDS011;35974;47.752;10.290;2022-10-16T13:49:01;0.47;;;0.30;;
50092;SDS011;35974;47.752;10.290;2022-10-16T13:51:38;5.57;;;0.70;;
50092;SDS011;35974;47.752;10.290;2022-10-16T13:54:05;1.60;;;0.52;;
50092;SDS011;35974;47.752;10.290;2022-10-16T13:56:32;1.83;;;0.60;;
50092;SDS011;35974;47.752;10.290;2022-10-16T13:59:03;1.65;;;0.55;;
50092;SDS011;35974;47.752;10.290;2022-10-16T14:01:32;1.02;;;0.40;;
50092;SDS011;35974;47.752;10.290;2022-10-16T14:04:03;1.20;;;0.40;;
50092;SDS011;35974;47.752;10.290;2022-10-16T14:06:31;1.17;;;0.40;;
50092;SDS011;35974;47.752;10.290;2022-10-16T14:09:00;1.88;;;0.50;;
50092;SDS011;35974;47.752;10.290;2022-10-16T14:11:32;1.75;;;0.63;;
50092;SDS011;35974;47.752;10.290;2022-10-16T14:13:59;2.22;;;0.47;;
50092;SDS011;35974;47.752;10.290;2022-10-16T14:16:27;1.20;;;0.50;;
50092;SDS011;35974;47.752;10.290;2022-10-16T14:19:02;1.35;;;0.40;;
50092;SDS011;35974;47.752;10.290;2022-10-16T14:21:33;0.80;;;0.60;;
50092;SDS011;35974;47.752;10.290;2022-10-16T14:24:10;1.02;;;0.50;;
50092;SDS011;35974;47.752;10.290;2022-10-16T14:26:44;1.95;;;0.65;;
50092;SDS011;35974;47.752;10.290;2022-10-16T14:29:19;1.48;;;0.60;;
50092;SDS011;35974;47.752;10.290;2022-10-16T14:31:59;1.65;;;0.60;;
50092;SDS011;35974;47.752;10.290;2022-10-16T14:34:29;1.33;;;0.60;;
50092;SDS011;35974;47.752;10.290;2022-10-16T14:37:08;1.83;;;0.52;;
50092;SDS011;35974;47.752;10.290;2022-10-16T14:39:53;3.08;;;0.52;;
50092;SDS011;35974;47.752;10.290;2022-10-16T14:42:21;3.20;;;0.60;;
50092;SDS011;35974;47.752;10.290;2022-10-16T14:44:52;0.95;;;0.60;;
50092;SDS011;35974;47.752;10.290;2022-10-16T14:47:21;2.80;;;0.57;;
50092;SDS011;35974;47.752;10.290;2022-10-16T14:49:53;1.05;;;0.60;;
50092;SDS011;35974;47.752;10.290;2022-10-16T14:52:25;2.05;;;0.57;;
50092;SDS011;35974;47.752;10.290;2022-10-16T14:55:00;2.00;;;0.70;;
50092;SDS011;35974;47.752;10.290;2022-10-16T14:57:27;2.50;;;0.70;;
50092;SDS011;35974;47.752;10.290;2022-10-16T15:00:00;1.05;;;0.60;;
50092;SDS011;35974;47.752;10.290;2022-10-16T15:02:30;10.65;;;1.17;;
50092;SDS011;35974;47.752;10.290;2022-10-16T15:05:07;3.55;;;0.65;;
50092;SDS011;35974;47.752;10.290;2022-10-16T15:07:38;8.43;;;1.08;;
50092;SDS011;35974;47.752;10.290;2022-10-16T15:10:05;6.75;;;0.90;;
50092;SDS011;35974;47.752;10.290;2022-10-16T15:12:31;4.90;;;0.60;;
50092;SDS011;35974;47.752;10.290;2022-10-16T15:14:58;2.92;;;0.70;;
50092;SDS011;35974;47.752;10.290;2022-10-16T15:17:24;5.13;;;1.05;;
50092;SDS011;35974;47.752;10.290;2022-10-16T15:19:51;3.75;;;0.63;;
50092;SDS011;35974;47.752;10.290;2022-10-16T15:22:18;10.88;;;0.90;;
50092;SDS011;35974;47.752;10.290;2022-10-16T15:24:44;2.33;;;0.70;;
50092;SDS011;35974;47.752;10.290;2022-10-16T15:27:11;10.30;;;0.90;;
50092;SDS011;35974;47.752;10.290;2022-10-16T15:29:37;5.60;;;0.70;;
50092;SDS011;35974;47.752;10.290;2022-10-16T15:32:03;5.22;;;1.00;;
50092;SDS011;35974;47.752;10.290;2022-10-16T15:34:31;3.03;;;0.70;;
50092;SDS011;35974;47.752;10.290;2022-10-16T15:36:57;4.50;;;0.63;;
50092;SDS011;35974;47.752;10.290;2022-10-16T15:39:25;2.53;;;0.80;;
50092;SDS011;35974;47.752;10.290;2022-10-16T15:41:51;5.88;;;0.80;;
50092;SDS011;35974;47.752;10.290;2022-10-16T15:44:28;8.93;;;0.95;;
50092;SDS011;35974;47.752;10.290;2022-10-16T15:46:56;9.93;;;1.15;;
50092;SDS011;35974;47.752;10.290;2022-10-16T15:49:22;12.30;;;1.10;;
50092;SDS011;35974;47.752;10.290;2022-10-16T15:51:49;4.68;;;0.80;;
50092;SDS011;35974;47.752;10.290;2022-10-16T15:54:15;4.63;;;1.02;;
50092;SDS011;35974;47.752;10.290;2022-10-16T15:56:42;7.25;;;0.90;;
50092;SDS011;35974;47.752;10.290;2022-10-16T15:59:08;13.38;;;1.15;;
50092;SDS011;35974;47.752;10.290;2022-10-16T16:01:35;6.57;;;0.77;;
50092;SDS011;35974;47.752;10.290;2022-10-16T16:04:02;4.45;;;1.00;;
50092;SDS011;35974;47.752;10.290;2022-10-16T16:06:36;8.75;;;0.80;;
50092;SDS011;35974;47.752;10.290;2022-10-16T16:09:05;12.52;;;1.45;;
50092;SDS011;35974;47.752;10.290;2022-10-16T16:11:31;7.35;;;1.17;;
50092;SDS011;35974;47.752;10.290;2022-10-16T16:13:59;9.70;;;0.80;;
50092;SDS011;35974;47.752;10.290;2022-10-16T16:16:26;9.10;;;0.95;;
50092;SDS011;35974;47.752;10.290;2022-10-16T16:18:52;3.88;;;0.90;;
50092;SDS011;35974;47.752;10.290;2022-10-16T16:21:19;17.23;;;1.40;;
50092;SDS011;35974;47.752;10.290;2022-10-16T16:23:45;8.68;;;1.25;;
50092;SDS011;35974;47.752;10.290;2022-10-16T16:26:22;10.32;;;1.10;;
50092;SDS011;35974;47.752;10.290;2022-10-16T16:28:52;13.13;;;1.70;;
50092;SDS011;35974;47.752;10.290;2022-10-16T16:31:20;7.35;;;1.95;;
50092;SDS011;35974;47.752;10.290;2022-10-16T16:33:50;12.32;;;1.45;;
50092;SDS011;35974;47.752;10.290;2022-10-16T16:36:17;7.32;;;1.63;;
50092;SDS011;35974;47.752;10.290;2022-10-16T16:38:44;6.72;;;2.40;;
50092;SDS011;35974;47.752;10.290;2022-10-16T16:41:19;21.33;;;3.20;;
50092;SDS011;35974;47.752;10.290;2022-10-16T16:43:47;9.95;;;2.85;;
50092;SDS011;35974;47.752;10.290;2022-10-16T16:46:14;7.25;;;2.70;;
50092;SDS011;35974;47.752;10.290;2022-10-16T16:48:41;18.23;;;3.25;;
50092;SDS011;35974;47.752;10.290;2022-10-16T16:51:09;9.98;;;2.53;;
50092;SDS011;35974;47.752;10.290;2022-10-16T16:53:42;13.32;;;2.13;;
50092;SDS011;35974;47.752;10.290;2022-10-16T16:56:09;7.82;;;2.00;;
50092;SDS011;35974;47.752;10.290;2022-10-16T16:58:36;7.97;;;1.52;;
50092;SDS011;35974;47.752;10.290;2022-10-16T17:01:02;3.90;;;1.27;;